GFLL

Details ICAO GFLL (FNA)
Name FREETOWN LUNGI
Region Sierra Leone
Timezone Africa/Freetown (UTC+0.0)
Plans Departing 61
Arriving 78
Stats Elevation 84 ft / 26 m (AMSL)
Location 8.616443° -13.195489°
Runways 1
Magnetic Variation 7.060° W
Sunrise 2018-05-24 06:34:16 UTC / 2018-05-24 06:34:16 Local
Sunset 2018-05-24 19:07:50 UTC / 2018-05-24 19:07:50 Local
Advertisement - Login to hide

Runways

ID Width Length Bearing (true) Bearing (mag) Surface Threshold Offset Overrun Length
12 150 ft / 46 m 10,507 ft / 3,203 m 107.14° 114.20° Asphalt 0 ft / 0 m 394 ft / 120 m
30 150 ft / 46 m 10,507 ft / 3,203 m 287.14° 294.20° Asphalt 0 ft / 0 m 197 ft / 60 m

Map

Weather


0- 5 10 15 20 25 30 35+ Temperature / ° C

Clouds and Precipitation
Forecast for 2018-05-24 00:00 UTC. Updated 6 hours ago

Ground ~20,000 ft ~40,000 ft Winds

METAR

Not found

TAF

TAF GFLL 232200Z 2324/2506 27010KT 9999 NSC PROB30 TEMPO 2402/2406 7000 -TSRA BKN010 FEW027CB TEMPO 2407/2411 31006KT 9999 FEW014 SCT110 TEMPO 30010KT CAVOK TEMPO 2415/2420 9999 FEW014 BECMG 2501/2503 28010KT NSC

Frequencies

Ground 121.90 MHz GND
Tower 118.10 MHz TWR
Tower 121.90 MHz TWR
Approach 119.10 MHz APP
Warning: Do not use this data for real-world aviation or navigation. No guarantee of current accuracy is given.